Time;durP1;ratioP1;P1;durP2;ratioP2;P2;SDS_P1;SDS_P2;PMS_P1;PMS_P2;Temp;Humidity;BMP_temperature;BMP_pressure;BME280_temperature;BME280_humidity;BME280_pressure;Samples;Min_cycle;Max_cycle;Signal;HPM_P1;HPM_P2
2024/01/06 00:01:05;;;;;;;2.90;1.17;;;;;;;;;;6209880;22;20377;-95
2024/01/06 00:03:31;;;;;;;2.13;1.93;;;;;;;;;;6261656;22;20408;-93
2024/01/06 00:05:59;;;;;;;2.60;1.77;;;;;;;;;;6284798;22;20946;-93
2024/01/06 00:08:25;;;;;;;3.80;2.97;;;;;;;;;;6258225;22;20365;-94
2024/01/06 00:10:51;;;;;;;2.47;1.57;;;;;;;;;;6260488;22;20404;-94
2024/01/06 00:13:17;;;;;;;2.00;1.20;;;;;;;;;;6261793;22;20495;-94
2024/01/06 00:15:46;;;;;;;1.37;1.27;;;;;;;;;;6259297;22;20392;-94
2024/01/06 00:18:12;;;;;;;2.33;1.40;;;;;;;;;;6261087;22;20385;-93
2024/01/06 00:20:46;;;;;;;9.70;1.63;;;;;;;;;;6259949;22;20439;-93
2024/01/06 00:23:12;;;;;;;1.63;1.40;;;;;;;;;;6260106;22;20482;-91
2024/01/06 00:25:38;;;;;;;5.90;2.40;;;;;;;;;;6260287;22;20386;-94
2024/01/06 00:28:04;;;;;;;2.70;1.57;;;;;;;;;;6260341;22;20392;-93
2024/01/06 00:30:33;;;;;;;2.03;1.80;;;;;;;;;;6260908;22;20397;-95
2024/01/06 00:32:59;;;;;;;1.20;1.10;;;;;;;;;;6260310;22;20516;-93
2024/01/06 00:35:25;;;;;;;3.90;1.47;;;;;;;;;;6260132;22;20378;-92
2024/01/06 00:37:55;;;;;;;2.13;1.00;;;;;;;;;;6259701;22;20404;-93
2024/01/06 00:40:21;;;;;;;1.50;1.37;;;;;;;;;;6283953;22;20446;-94
2024/01/06 00:42:47;;;;;;;1.77;1.10;;;;;;;;;;6259462;22;20365;-93
2024/01/06 00:45:13;;;;;;;1.80;1.33;;;;;;;;;;6262454;22;20682;-94
2024/01/06 00:47:39;;;;;;;3.53;1.53;;;;;;;;;;6257895;22;20381;-94
2024/01/06 00:50:05;;;;;;;1.97;0.87;;;;;;;;;;6258517;22;20426;-94
2024/01/06 00:52:32;;;;;;;2.30;1.47;;;;;;;;;;6260731;22;20411;-94
2024/01/06 00:54:58;;;;;;;1.90;1.47;;;;;;;;;;6259458;22;20804;-94
2024/01/06 00:57:24;;;;;;;2.10;1.13;;;;;;;;;;6260106;22;20381;-93
2024/01/06 00:59:50;;;;;;;2.00;1.47;;;;;;;;;;6256819;22;20374;-94
2024/01/06 01:02:17;;;;;;;3.13;1.47;;;;;;;;;;6258860;22;20704;-94
2024/01/06 01:04:43;;;;;;;1.30;1.03;;;;;;;;;;6261866;22;20407;-95
2024/01/06 01:07:09;;;;;;;4.20;1.63;;;;;;;;;;6258335;22;20380;-94
2024/01/06 01:09:35;;;;;;;1.57;0.97;;;;;;;;;;6258573;22;20373;-93
2024/01/06 01:12:01;;;;;;;2.47;1.40;;;;;;;;;;6260956;22;20848;-93
2024/01/06 01:14:27;;;;;;;1.97;1.20;;;;;;;;;;6258878;22;20397;-92
2024/01/06 01:16:53;;;;;;;2.20;1.50;;;;;;;;;;6263417;22;20393;-93
2024/01/06 01:19:19;;;;;;;1.37;1.27;;;;;;;;;;6259475;22;20396;-94
2024/01/06 01:21:45;;;;;;;1.23;1.00;;;;;;;;;;6258812;22;20373;-94
2024/01/06 01:24:11;;;;;;;1.80;0.83;;;;;;;;;;6261289;22;20435;-94
2024/01/06 01:26:37;;;;;;;1.43;1.30;;;;;;;;;;6263799;22;20405;-95
2024/01/06 01:29:03;;;;;;;1.30;1.20;;;;;;;;;;6261164;22;20396;-95
2024/01/06 01:31:29;;;;;;;2.43;1.33;;;;;;;;;;6263629;22;20361;-94
2024/01/06 01:33:55;;;;;;;1.13;0.93;;;;;;;;;;6258614;22;20489;-94
2024/01/06 01:36:21;;;;;;;1.60;1.30;;;;;;;;;;6262119;22;20362;-94
2024/01/06 01:38:47;;;;;;;6.90;1.90;;;;;;;;;;6259225;22;20408;-95
2024/01/06 01:41:16;;;;;;;1.33;1.23;;;;;;;;;;6285176;22;20427;-93
2024/01/06 01:43:42;;;;;;;3.30;1.10;;;;;;;;;;6260116;22;20385;-93
2024/01/06 01:46:08;;;;;;;3.17;1.50;;;;;;;;;;6260245;22;20377;-94
2024/01/06 01:48:34;;;;;;;4.73;2.60;;;;;;;;;;6260277;22;20442;-92
2024/01/06 01:51:00;;;;;;;1.50;1.40;;;;;;;;;;6264549;22;20380;-93
2024/01/06 01:53:26;;;;;;;2.97;0.83;;;;;;;;;;6257664;22;20429;-93
2024/01/06 01:55:52;;;;;;;3.23;1.27;;;;;;;;;;6260801;22;20400;-93
2024/01/06 01:58:18;;;;;;;3.40;1.93;;;;;;;;;;6260160;22;20404;-94
2024/01/06 02:00:44;;;;;;;1.77;1.30;;;;;;;;;;6259345;22;20378;-93
2024/01/06 02:03:10;;;;;;;9.23;1.53;;;;;;;;;;6259986;22;20385;-95
2024/01/06 02:05:37;;;;;;;3.17;1.43;;;;;;;;;;6262625;22;20389;-94
2024/01/06 02:08:03;;;;;;;2.80;1.20;;;;;;;;;;6262103;22;20378;-94
2024/01/06 02:10:29;;;;;;;2.40;1.20;;;;;;;;;;6261757;22;20369;-95
2024/01/06 02:12:55;;;;;;;1.87;1.27;;;;;;;;;;6262414;22;20507;-93
2024/01/06 02:15:21;;;;;;;1.50;1.33;;;;;;;;;;6258326;22;20385;-94
2024/01/06 02:17:47;;;;;;;2.90;1.30;;;;;;;;;;6259080;22;20414;-93
2024/01/06 02:20:13;;;;;;;1.43;1.10;;;;;;;;;;6260188;22;20361;-92
2024/01/06 02:22:39;;;;;;;2.50;1.17;;;;;;;;;;6264109;22;20377;-93
2024/01/06 02:25:07;;;;;;;2.63;1.57;;;;;;;;;;6258728;22;20423;-94
2024/01/06 02:27:33;;;;;;;3.63;1.40;;;;;;;;;;6261102;22;20385;-94
2024/01/06 02:29:59;;;;;;;3.40;1.70;;;;;;;;;;6258730;22;20661;-93
2024/01/06 02:32:25;;;;;;;1.10;1.00;;;;;;;;;;6261531;22;20421;-94
2024/01/06 02:34:51;;;;;;;1.77;1.10;;;;;;;;;;6260290;22;20404;-94
2024/01/06 02:37:17;;;;;;;3.37;1.40;;;;;;;;;;6290059;22;20369;-93
2024/01/06 02:39:43;;;;;;;1.63;1.37;;;;;;;;;;6259895;22;20853;-94
2024/01/06 02:42:09;;;;;;;2.57;1.23;;;;;;;;;;6262798;22;20385;-92
2024/01/06 02:44:35;;;;;;;7.13;1.53;;;;;;;;;;6261654;22;20409;-93
2024/01/06 02:47:01;;;;;;;2.30;1.27;;;;;;;;;;6260878;22;20381;-92
2024/01/06 02:49:27;;;;;;;2.90;1.57;;;;;;;;;;6260224;22;20381;-93
2024/01/06 02:51:53;;;;;;;1.57;1.07;;;;;;;;;;6262333;22;20384;-93
2024/01/06 02:54:19;;;;;;;1.73;1.23;;;;;;;;;;6262408;22;20411;-94
2024/01/06 02:56:45;;;;;;;3.00;1.83;;;;;;;;;;6261813;22;20381;-93
2024/01/06 02:59:11;;;;;;;1.47;0.97;;;;;;;;;;6259113;22;20381;-94
2024/01/06 03:01:37;;;;;;;4.13;1.30;;;;;;;;;;6262827;22;20451;-94
2024/01/06 03:04:03;;;;;;;3.17;1.33;;;;;;;;;;6260086;22;20381;-94
2024/01/06 03:06:30;;;;;;;1.53;1.10;;;;;;;;;;6262903;22;20743;-93
2024/01/06 03:08:55;;;;;;;1.90;1.70;;;;;;;;;;6260915;22;20380;-94
2024/01/06 03:11:22;;;;;;;1.17;1.03;;;;;;;;;;6262140;22;20373;-94
2024/01/06 03:13:48;;;;;;;2.33;2.13;;;;;;;;;;6257473;22;20474;-93
2024/01/06 03:16:14;;;;;;;5.77;1.43;;;;;;;;;;6260873;22;20385;-94
2024/01/06 03:18:40;;;;;;;6.63;1.40;;;;;;;;;;6259680;22;20369;-95
2024/01/06 03:21:06;;;;;;;1.60;1.40;;;;;;;;;;6262689;22;20373;-94
2024/01/06 03:23:32;;;;;;;1.17;1.07;;;;;;;;;;6260358;22;20378;-94
2024/01/06 03:25:58;;;;;;;1.40;1.30;;;;;;;;;;6259841;22;20415;-94
2024/01/06 03:28:24;;;;;;;1.53;1.23;;;;;;;;;;6259174;22;20383;-92
2024/01/06 03:30:50;;;;;;;4.50;1.83;;;;;;;;;;6259159;22;20381;-94
2024/01/06 03:33:16;;;;;;;2.60;1.80;;;;;;;;;;6258548;22;20513;-94
2024/01/06 03:35:42;;;;;;;1.97;1.30;;;;;;;;;;6258018;22;20377;-94
2024/01/06 03:38:08;;;;;;;4.13;1.60;;;;;;;;;;6259807;22;20420;-94
2024/01/06 03:40:34;;;;;;;3.00;1.30;;;;;;;;;;6258044;22;20714;-95
2024/01/06 03:43:00;;;;;;;2.17;1.27;;;;;;;;;;6257618;22;20408;-94
2024/01/06 03:45:26;;;;;;;2.00;1.80;;;;;;;;;;6257409;22;20398;-94
2024/01/06 03:47:52;;;;;;;1.70;1.60;;;;;;;;;;6260417;22;20378;-94
2024/01/06 03:50:18;;;;;;;2.40;1.90;;;;;;;;;;6259332;22;20366;-95
2024/01/06 03:52:44;;;;;;;2.10;1.13;;;;;;;;;;6260007;22;20421;-92
2024/01/06 03:55:10;;;;;;;1.83;1.30;;;;;;;;;;6258930;22;20395;-94
2024/01/06 03:57:36;;;;;;;2.90;1.53;;;;;;;;;;6262161;22;20396;-93
2024/01/06 04:00:02;;;;;;;2.20;1.70;;;;;;;;;;6258699;22;20385;-93
2024/01/06 04:02:28;;;;;;;3.40;1.00;;;;;;;;;;6260292;22;20389;-95
2024/01/06 04:04:54;;;;;;;3.80;1.70;;;;;;;;;;6261134;22;20388;-95
2024/01/06 04:07:20;;;;;;;1.30;1.20;;;;;;;;;;6260649;22;20385;-94
2024/01/06 04:09:46;;;;;;;4.00;1.40;;;;;;;;;;6260313;22;20446;-94
2024/01/06 04:12:12;;;;;;;3.43;1.40;;;;;;;;;;6262728;22;20389;-94
2024/01/06 04:14:38;;;;;;;4.20;1.80;;;;;;;;;;6260150;22;20374;-94
2024/01/06 04:17:04;;;;;;;8.83;1.70;;;;;;;;;;6260274;22;20449;-94
2024/01/06 04:19:30;;;;;;;3.03;1.53;;;;;;;;;;6261050;22;20372;-93
2024/01/06 04:21:57;;;;;;;5.43;2.00;;;;;;;;;;6261058;22;20377;-95
2024/01/06 04:24:23;;;;;;;1.67;1.37;;;;;;;;;;6258400;22;20373;-94
2024/01/06 04:26:50;;;;;;;2.73;1.80;;;;;;;;;;6259195;22;20388;-93
2024/01/06 04:29:16;;;;;;;2.53;1.20;;;;;;;;;;6258957;22;20363;-93
2024/01/06 04:31:42;;;;;;;1.93;1.77;;;;;;;;;;6260666;22;20404;-94
2024/01/06 04:34:08;;;;;;;2.43;1.20;;;;;;;;;;6257197;22;20889;-92
2024/01/06 04:36:34;;;;;;;7.10;1.93;;;;;;;;;;6257906;22;20378;-94
2024/01/06 04:39:00;;;;;;;2.27;1.10;;;;;;;;;;6259068;22;20378;-94
2024/01/06 04:41:26;;;;;;;1.53;1.43;;;;;;;;;;6261563;22;20381;-93
2024/01/06 04:43:52;;;;;;;3.30;1.20;;;;;;;;;;6258491;22;20393;-94
2024/01/06 04:46:18;;;;;;;1.40;1.30;;;;;;;;;;6264267;22;20384;-93
2024/01/06 04:48:44;;;;;;;2.00;1.50;;;;;;;;;;6259884;22;20385;-94
2024/01/06 04:51:11;;;;;;;1.13;1.07;;;;;;;;;;6260879;22;20431;-93
2024/01/06 04:53:37;;;;;;;1.37;1.23;;;;;;;;;;6259380;22;20428;-93
2024/01/06 04:56:03;;;;;;;2.77;1.57;;;;;;;;;;6259700;22;20404;-94
2024/01/06 04:58:29;;;;;;;2.27;1.60;;;;;;;;;;6285041;22;20373;-95
2024/01/06 05:00:57;;;;;;;4.27;1.60;;;;;;;;;;6262005;22;20444;-94
2024/01/06 05:03:23;;;;;;;4.47;2.07;;;;;;;;;;6262470;22;20373;-94
2024/01/06 05:05:49;;;;;;;1.97;1.43;;;;;;;;;;6259386;22;20384;-94
2024/01/06 05:08:15;;;;;;;1.13;1.03;;;;;;;;;;6259736;22;20460;-92
2024/01/06 05:10:41;;;;;;;3.87;1.30;;;;;;;;;;6260583;22;20374;-95
2024/01/06 05:13:07;;;;;;;1.20;1.10;;;;;;;;;;6257696;22;20500;-93
2024/01/06 05:15:33;;;;;;;2.47;1.40;;;;;;;;;;6257796;22;20378;-94
2024/01/06 05:17:59;;;;;;;4.97;1.73;;;;;;;;;;6260799;22;20380;-94
2024/01/06 05:20:25;;;;;;;5.07;1.10;;;;;;;;;;6259765;22;20386;-94
2024/01/06 05:22:51;;;;;;;1.10;1.00;;;;;;;;;;6260332;22;20377;-94
2024/01/06 05:25:17;;;;;;;1.90;1.43;;;;;;;;;;6286218;22;20385;-94
2024/01/06 05:27:43;;;;;;;1.90;1.27;;;;;;;;;;6260197;22;20397;-93
2024/01/06 05:30:09;;;;;;;1.70;1.60;;;;;;;;;;6257543;22;20377;-93
2024/01/06 05:32:35;;;;;;;4.80;1.20;;;;;;;;;;6258430;22;20421;-93
2024/01/06 05:35:01;;;;;;;2.50;1.40;;;;;;;;;;6257023;22;20374;-95
2024/01/06 05:37:27;;;;;;;1.13;1.03;;;;;;;;;;6261268;22;20427;-93
2024/01/06 05:39:54;;;;;;;1.90;1.13;;;;;;;;;;6257502;22;20401;-93
2024/01/06 05:42:20;;;;;;;2.60;1.37;;;;;;;;;;6257035;22;20970;-94
2024/01/06 05:44:46;;;;;;;1.10;1.00;;;;;;;;;;6257363;22;20940;-94
2024/01/06 05:47:12;;;;;;;3.63;1.43;;;;;;;;;;6256509;22;20361;-94
2024/01/06 05:49:43;;;;;;;1.33;1.23;;;;;;;;;;6256792;22;20385;-92
2024/01/06 05:52:09;;;;;;;1.80;1.10;;;;;;;;;;6255898;22;20381;-94
2024/01/06 05:54:35;;;;;;;2.13;1.17;;;;;;;;;;6255843;22;20439;-94
2024/01/06 05:57:01;;;;;;;7.13;1.60;;;;;;;;;;6257878;22;20393;-93
2024/01/06 05:59:27;;;;;;;1.63;1.20;;;;;;;;;;6256288;22;20428;-94
2024/01/06 06:01:53;;;;;;;9.90;1.70;;;;;;;;;;6258654;22;20392;-94
2024/01/06 06:04:19;;;;;;;5.90;2.03;;;;;;;;;;6257755;22;20396;-94
2024/01/06 06:06:45;;;;;;;1.70;1.60;;;;;;;;;;6258106;22;20394;-93
2024/01/06 06:09:11;;;;;;;1.30;1.20;;;;;;;;;;6256313;22;20372;-95
2024/01/06 06:11:37;;;;;;;1.57;1.33;;;;;;;;;;6262475;22;20384;-95
2024/01/06 06:14:04;;;;;;;3.20;1.50;;;;;;;;;;6258928;22;20409;-93
2024/01/06 06:16:30;;;;;;;1.67;1.57;;;;;;;;;;6261969;22;20424;-93
2024/01/06 06:18:56;;;;;;;1.07;1.00;;;;;;;;;;6259585;22;20389;-94
2024/01/06 06:21:22;;;;;;;3.50;1.30;;;;;;;;;;6265227;22;20397;-94
2024/01/06 06:23:48;;;;;;;1.60;1.50;;;;;;;;;;6261951;22;20769;-94
2024/01/06 06:26:14;;;;;;;1.50;1.40;;;;;;;;;;6263644;22;20384;-94
2024/01/06 06:28:40;;;;;;;2.03;1.20;;;;;;;;;;6265614;22;20381;-94
2024/01/06 06:31:07;;;;;;;1.20;1.10;;;;;;;;;;6267661;22;20461;-95
2024/01/06 06:33:33;;;;;;;2.70;1.80;;;;;;;;;;6263318;22;20428;-93
2024/01/06 06:35:59;;;;;;;1.97;1.83;;;;;;;;;;6263125;22;20450;-94
2024/01/06 06:38:29;;;;;;;2.50;1.43;;;;;;;;;;6262590;22;20853;-94
2024/01/06 06:40:56;;;;;;;4.47;2.10;;;;;;;;;;6262794;22;20389;-94
2024/01/06 06:43:22;;;;;;;2.77;2.10;;;;;;;;;;6262068;22;20442;-94
2024/01/06 06:45:48;;;;;;;4.43;1.33;;;;;;;;;;6263509;22;20393;-94
2024/01/06 06:48:14;;;;;;;1.43;1.33;;;;;;;;;;6260928;22;20380;-93
2024/01/06 06:50:43;;;;;;;1.33;1.23;;;;;;;;;;6260524;22;20388;-95
2024/01/06 06:53:09;;;;;;;4.10;1.97;;;;;;;;;;6262539;22;20425;-94
2024/01/06 06:55:37;;;;;;;1.30;1.13;;;;;;;;;;6262899;22;20366;-94
2024/01/06 06:58:03;;;;;;;1.37;1.00;;;;;;;;;;6260740;22;20415;-94
2024/01/06 07:00:29;;;;;;;6.33;1.63;;;;;;;;;;6264412;22;20397;-94
2024/01/06 07:02:55;;;;;;;1.20;1.10;;;;;;;;;;6262333;22;20385;-94
2024/01/06 07:05:21;;;;;;;4.47;1.43;;;;;;;;;;6263298;22;20374;-94
2024/01/06 07:07:47;;;;;;;2.80;1.20;;;;;;;;;;6261065;22;20922;-91
2024/01/06 07:10:13;;;;;;;1.67;1.47;;;;;;;;;;6261254;22;20388;-95
2024/01/06 07:12:39;;;;;;;1.47;1.37;;;;;;;;;;6259394;22;20436;-95
2024/01/06 07:15:05;;;;;;;2.70;1.80;;;;;;;;;;6259846;22;20388;-94
2024/01/06 07:17:31;;;;;;;1.43;1.20;;;;;;;;;;6257269;22;20382;-94
2024/01/06 07:19:57;;;;;;;2.90;1.33;;;;;;;;;;6261621;22;20392;-94
2024/01/06 07:22:23;;;;;;;2.17;1.47;;;;;;;;;;6259898;22;20393;-94
2024/01/06 07:24:49;;;;;;;1.47;1.37;;;;;;;;;;6260529;22;20382;-95
2024/01/06 07:27:15;;;;;;;1.93;1.00;;;;;;;;;;6260803;22;20389;-95
2024/01/06 07:29:41;;;;;;;1.90;1.27;;;;;;;;;;6259892;22;20377;-95
2024/01/06 07:32:07;;;;;;;1.40;1.10;;;;;;;;;;6260900;22;20434;-95
2024/01/06 07:34:33;;;;;;;4.67;1.37;;;;;;;;;;6258362;22;20393;-94
2024/01/06 07:37:00;;;;;;;1.60;1.40;;;;;;;;;;6259498;22;20373;-92
2024/01/06 07:39:26;;;;;;;4.13;1.23;;;;;;;;;;6258419;22;20379;-93
2024/01/06 07:41:52;;;;;;;2.30;1.67;;;;;;;;;;6256532;22;20509;-94
2024/01/06 07:44:24;;;;;;;1.50;1.40;;;;;;;;;;6259710;22;20388;-93
2024/01/06 07:46:51;;;;;;;1.63;1.33;;;;;;;;;;6259160;22;20357;-94
2024/01/06 07:49:17;;;;;;;3.47;1.30;;;;;;;;;;6256553;22;20369;-94
2024/01/06 07:51:43;;;;;;;2.53;1.50;;;;;;;;;;6259099;22;20366;-91
2024/01/06 07:54:09;;;;;;;2.40;1.50;;;;;;;;;;6285248;22;20410;-93
2024/01/06 07:56:36;;;;;;;3.23;1.97;;;;;;;;;;6260752;22;20488;-92
2024/01/06 07:59:02;;;;;;;5.27;1.53;;;;;;;;;;6259860;22;20401;-93
2024/01/06 08:01:28;;;;;;;2.03;1.90;;;;;;;;;;6261395;22;20385;-93
2024/01/06 08:03:54;;;;;;;3.73;1.20;;;;;;;;;;6260367;22;20396;-93
2024/01/06 08:06:20;;;;;;;2.50;2.10;;;;;;;;;;6260955;22;20919;-94
2024/01/06 08:08:46;;;;;;;1.93;1.30;;;;;;;;;;6286714;22;20400;-92
2024/01/06 08:11:12;;;;;;;2.77;1.23;;;;;;;;;;6260904;22;20380;-93
2024/01/06 08:13:38;;;;;;;1.40;1.30;;;;;;;;;;6260407;22;20413;-93
2024/01/06 08:16:05;;;;;;;2.10;1.60;;;;;;;;;;6286116;22;20366;-92
2024/01/06 08:18:31;;;;;;;2.77;1.17;;;;;;;;;;6258524;22;20430;-96
2024/01/06 08:20:58;;;;;;;1.47;1.37;;;;;;;;;;6261251;22;20369;-93
2024/01/06 08:23:24;;;;;;;2.60;1.10;;;;;;;;;;6261380;22;20848;-91
2024/01/06 08:25:51;;;;;;;5.70;1.27;;;;;;;;;;6261629;22;20420;-92
2024/01/06 08:28:18;;;;;;;3.80;1.77;;;;;;;;;;6260950;22;20385;-94
2024/01/06 08:30:44;;;;;;;2.90;1.40;;;;;;;;;;6263523;22;20378;-93
2024/01/06 08:33:10;;;;;;;1.40;1.30;;;;;;;;;;6259883;22;20404;-92
2024/01/06 08:35:40;;;;;;;1.53;1.43;;;;;;;;;;6261847;22;20392;-93
2024/01/06 08:38:07;;;;;;;1.53;1.43;;;;;;;;;;6286228;22;20396;-92
2024/01/06 08:40:33;;;;;;;3.83;1.33;;;;;;;;;;6259136;22;20377;-94
2024/01/06 08:42:59;;;;;;;2.30;1.33;;;;;;;;;;6259849;22;20416;-94
2024/01/06 08:45:25;;;;;;;1.90;1.63;;;;;;;;;;6285697;22;20397;-94
2024/01/06 08:47:51;;;;;;;1.40;1.27;;;;;;;;;;6259956;22;20373;-93
2024/01/06 08:50:17;;;;;;;1.67;1.47;;;;;;;;;;6287326;22;20388;-94
2024/01/06 08:52:43;;;;;;;3.63;1.57;;;;;;;;;;6260893;22;20407;-93
2024/01/06 08:55:09;;;;;;;1.43;1.33;;;;;;;;;;6262021;22;20690;-94
2024/01/06 08:57:36;;;;;;;1.97;1.77;;;;;;;;;;6261426;22;20376;-92
2024/01/06 09:00:03;;;;;;;2.83;1.70;;;;;;;;;;6260347;22;20361;-93
2024/01/06 09:02:29;;;;;;;2.53;1.10;;;;;;;;;;6286121;22;20373;-94
2024/01/06 09:04:55;;;;;;;1.00;1.00;;;;;;;;;;6264814;22;20436;-92
2024/01/06 09:07:21;;;;;;;1.67;1.40;;;;;;;;;;6287721;22;20520;-93
2024/01/06 09:09:46;;;;;;;3.43;1.27;;;;;;;;;;6262062;22;20389;-94
2024/01/06 09:12:12;;;;;;;3.00;1.40;;;;;;;;;;6261772;22;20400;-94
2024/01/06 09:14:39;;;;;;;1.27;1.20;;;;;;;;;;6262975;22;20757;-93
2024/01/06 09:17:05;;;;;;;2.60;1.30;;;;;;;;;;6260687;22;20377;-94
2024/01/06 09:19:31;;;;;;;4.93;2.03;;;;;;;;;;6260479;22;20444;-93
2024/01/06 09:21:57;;;;;;;1.80;1.27;;;;;;;;;;6261351;22;20389;-92
2024/01/06 09:24:23;;;;;;;1.50;1.40;;;;;;;;;;6261912;22;20386;-92
2024/01/06 09:26:50;;;;;;;1.60;1.50;;;;;;;;;;6258576;22;20384;-93
2024/01/06 09:29:16;;;;;;;1.70;1.60;;;;;;;;;;6260463;22;20450;-92
2024/01/06 09:31:43;;;;;;;1.17;1.07;;;;;;;;;;6255938;22;20438;-94
2024/01/06 09:34:12;;;;;;;2.27;1.40;;;;;;;;;;6257801;22;20431;-94
2024/01/06 09:36:39;;;;;;;2.30;1.20;;;;;;;;;;6258615;22;20403;-93
2024/01/06 09:39:05;;;;;;;2.60;1.37;;;;;;;;;;6260125;22;20864;-94
2024/01/06 09:41:31;;;;;;;2.07;1.70;;;;;;;;;;6261376;22;20384;-94
2024/01/06 09:43:57;;;;;;;2.87;1.63;;;;;;;;;;6262858;22;20481;-95
2024/01/06 09:46:26;;;;;;;1.43;1.33;;;;;;;;;;6265665;22;20442;-94
2024/01/06 09:48:53;;;;;;;1.60;1.10;;;;;;;;;;6288748;22;20397;-94
2024/01/06 09:51:19;;;;;;;1.60;1.10;;;;;;;;;;6289691;22;20366;-94
2024/01/06 09:53:49;;;;;;;1.63;1.13;;;;;;;;;;6261409;22;20425;-92
2024/01/06 09:56:16;;;;;;;2.50;1.20;;;;;;;;;;6263152;22;20869;-93
2024/01/06 09:58:42;;;;;;;2.70;1.60;;;;;;;;;;6260777;22;20408;-94
2024/01/06 10:01:08;;;;;;;1.30;1.10;;;;;;;;;;6266406;22;20385;-94
2024/01/06 10:03:35;;;;;;;1.80;1.23;;;;;;;;;;6261177;22;20605;-93
2024/01/06 10:06:03;;;;;;;2.40;1.57;;;;;;;;;;6261944;22;20396;-94
2024/01/06 10:08:29;;;;;;;1.53;1.37;;;;;;;;;;6265060;22;20382;-94
2024/01/06 10:10:55;;;;;;;1.17;1.00;;;;;;;;;;6262638;22;20361;-94
2024/01/06 10:13:23;;;;;;;1.80;1.70;;;;;;;;;;6261680;22;20436;-93
2024/01/06 10:15:50;;;;;;;1.53;1.43;;;;;;;;;;6288534;22;20375;-94
2024/01/06 10:18:16;;;;;;;2.23;1.57;;;;;;;;;;6260221;22;20380;-93
2024/01/06 10:20:42;;;;;;;1.60;1.40;;;;;;;;;;6260681;22;20384;-93
2024/01/06 10:23:08;;;;;;;2.07;1.20;;;;;;;;;;6262367;22;20381;-93
2024/01/06 10:25:34;;;;;;;1.60;1.43;;;;;;;;;;6263563;22;20774;-94
2024/01/06 10:28:03;;;;;;;6.33;1.10;;;;;;;;;;6262633;22;20393;-94
2024/01/06 10:30:29;;;;;;;1.90;1.10;;;;;;;;;;6261491;22;20385;-94
2024/01/06 10:32:55;;;;;;;2.23;1.67;;;;;;;;;;6261625;22;20409;-93
2024/01/06 10:35:21;;;;;;;4.00;1.50;;;;;;;;;;6263701;22;20794;-93
2024/01/06 10:37:49;;;;;;;1.43;1.33;;;;;;;;;;6258569;22;20392;-94
2024/01/06 10:40:18;;;;;;;1.43;1.33;;;;;;;;;;6288691;22;20448;-94
2024/01/06 10:42:44;;;;;;;1.57;1.20;;;;;;;;;;6260946;22;20377;-94
2024/01/06 10:45:11;;;;;;;4.33;1.50;;;;;;;;;;6262647;22;20381;-93
2024/01/06 10:47:37;;;;;;;1.63;1.53;;;;;;;;;;6258996;22;20754;-92
2024/01/06 10:50:04;;;;;;;1.30;1.20;;;;;;;;;;6260094;22;20437;-92
2024/01/06 10:52:30;;;;;;;1.07;0.97;;;;;;;;;;6260285;22;20431;-93
2024/01/06 10:54:58;;;;;;;1.47;1.37;;;;;;;;;;6286788;22;20401;-92
2024/01/06 10:57:24;;;;;;;1.77;1.10;;;;;;;;;;6258503;22;20361;-92
2024/01/06 10:59:51;;;;;;;1.43;1.30;;;;;;;;;;6259511;22;20374;-92
2024/01/06 11:02:17;;;;;;;2.30;1.40;;;;;;;;;;6259794;22;20384;-91
2024/01/06 11:04:47;;;;;;;1.63;1.43;;;;;;;;;;6261963;22;20369;-90
2024/01/06 11:07:16;;;;;;;2.90;1.27;;;;;;;;;;6256902;22;20537;-89
2024/01/06 11:09:45;;;;;;;1.30;1.20;;;;;;;;;;6254348;22;20389;-90
2024/01/06 11:12:11;;;;;;;1.23;1.13;;;;;;;;;;6256467;22;20739;-89
2024/01/06 11:14:37;;;;;;;1.93;1.40;;;;;;;;;;6257916;22;20476;-89
2024/01/06 11:17:04;;;;;;;1.33;1.23;;;;;;;;;;6259139;22;20478;-90
2024/01/06 11:19:41;;;;;;;1.50;1.30;;;;;;;;;;6258347;22;20709;-90
2024/01/06 11:22:20;;;;;;;1.00;1.00;;;;;;;;;;6284627;22;20370;-90
2024/01/06 11:24:49;;;;;;;1.67;1.53;;;;;;;;;;6285360;22;20365;-90
2024/01/06 11:27:19;;;;;;;4.83;1.50;;;;;;;;;;6256724;22;20369;-90
2024/01/06 11:29:46;;;;;;;1.30;1.20;;;;;;;;;;6259281;22;20460;-90
2024/01/06 11:32:27;;;;;;;1.63;1.40;;;;;;;;;;6256713;22;20392;-89
2024/01/06 11:34:54;;;;;;;1.67;1.57;;;;;;;;;;6257007;22;20394;-89
2024/01/06 11:37:20;;;;;;;1.53;1.43;;;;;;;;;;6257179;22;20369;-90
2024/01/06 11:39:46;;;;;;;1.47;1.37;;;;;;;;;;6257300;22;20411;-90
2024/01/06 11:42:13;;;;;;;2.30;2.07;;;;;;;;;;6259355;22;20411;-90
2024/01/06 11:44:39;;;;;;;1.40;1.30;;;;;;;;;;6258720;22;20849;-89
2024/01/06 11:47:06;;;;;;;1.97;1.80;;;;;;;;;;6260977;22;20389;-89
2024/01/06 11:49:32;;;;;;;1.60;1.50;;;;;;;;;;6260465;22;20401;-89
2024/01/06 11:51:58;;;;;;;2.10;1.40;;;;;;;;;;6258321;22;20410;-90
2024/01/06 11:54:24;;;;;;;1.70;1.50;;;;;;;;;;6256462;22;20456;-90
2024/01/06 11:56:53;;;;;;;2.60;1.90;;;;;;;;;;6255852;22;20948;-90
2024/01/06 11:59:19;;;;;;;1.60;1.50;;;;;;;;;;6254579;22;20378;-89
2024/01/06 12:01:45;;;;;;;1.93;1.70;;;;;;;;;;6257121;22;20405;-90
2024/01/06 12:04:11;;;;;;;1.50;1.40;;;;;;;;;;6256728;22;20385;-90
2024/01/06 12:06:38;;;;;;;1.80;1.70;;;;;;;;;;6259761;22;20389;-90
2024/01/06 12:09:05;;;;;;;1.80;1.57;;;;;;;;;;6258141;22;20466;-90
2024/01/06 12:11:31;;;;;;;3.73;2.20;;;;;;;;;;6253802;22;20389;-90
2024/01/06 12:13:57;;;;;;;1.63;1.50;;;;;;;;;;6257690;22;20420;-90
2024/01/06 12:16:27;;;;;;;2.50;1.97;;;;;;;;;;6256360;22;20466;-89
2024/01/06 12:18:57;;;;;;;1.93;1.80;;;;;;;;;;6258774;22;20435;-88
2024/01/06 12:21:23;;;;;;;2.43;2.27;;;;;;;;;;6257385;22;20461;-89
2024/01/06 12:23:49;;;;;;;2.07;1.87;;;;;;;;;;6258330;22;20377;-90
2024/01/06 12:26:17;;;;;;;1.77;1.67;;;;;;;;;;6259170;22;20914;-90
2024/01/06 12:28:47;;;;;;;3.20;2.47;;;;;;;;;;6259483;22;20403;-90
2024/01/06 12:31:13;;;;;;;2.20;2.00;;;;;;;;;;6257876;22;20386;-90
2024/01/06 12:33:42;;;;;;;1.53;1.43;;;;;;;;;;6257184;22;20429;-90
2024/01/06 12:36:08;;;;;;;2.87;2.57;;;;;;;;;;6257244;22;20455;-89
2024/01/06 12:38:35;;;;;;;1.97;1.77;;;;;;;;;;6261251;22;20377;-89
2024/01/06 12:41:01;;;;;;;1.90;1.80;;;;;;;;;;6256840;22;20435;-90
2024/01/06 12:43:27;;;;;;;1.90;1.77;;;;;;;;;;6259660;22;20405;-91
2024/01/06 12:45:54;;;;;;;2.63;2.43;;;;;;;;;;6257066;22;20819;-90
2024/01/06 12:48:20;;;;;;;7.60;7.00;;;;;;;;;;6257298;22;20396;-90
2024/01/06 12:50:46;;;;;;;2.03;1.93;;;;;;;;;;6257344;22;20385;-89
2024/01/06 12:53:12;;;;;;;5.17;2.57;;;;;;;;;;6259010;22;20449;-88
2024/01/06 12:55:39;;;;;;;2.57;2.37;;;;;;;;;;6257033;22;20400;-91
2024/01/06 12:58:05;;;;;;;3.47;3.00;;;;;;;;;;6259462;22;20417;-89
2024/01/06 13:00:31;;;;;;;2.90;2.30;;;;;;;;;;6257594;22;20466;-89
2024/01/06 13:02:57;;;;;;;2.40;2.00;;;;;;;;;;6257142;22;20441;-89
2024/01/06 13:05:23;;;;;;;2.67;2.40;;;;;;;;;;6254445;22;20684;-89
2024/01/06 13:07:49;;;;;;;2.63;2.43;;;;;;;;;;6255642;22;20418;-90
2024/01/06 13:10:16;;;;;;;2.90;2.60;;;;;;;;;;6255410;22;20399;-90
2024/01/06 13:12:42;;;;;;;4.50;3.00;;;;;;;;;;6258466;22;20496;-90
2024/01/06 13:15:11;;;;;;;2.93;2.67;;;;;;;;;;6255711;22;20704;-90
2024/01/06 13:17:37;;;;;;;3.80;2.80;;;;;;;;;;6255616;22;20361;-90
2024/01/06 13:20:04;;;;;;;3.50;2.80;;;;;;;;;;6279671;22;20378;-90
2024/01/06 13:22:30;;;;;;;3.50;3.13;;;;;;;;;;6254108;22;20488;-91
2024/01/06 13:24:56;;;;;;;3.07;2.70;;;;;;;;;;6253599;22;20392;-90
2024/01/06 13:27:22;;;;;;;3.27;2.97;;;;;;;;;;6256055;22;20381;-90
2024/01/06 13:29:49;;;;;;;4.87;3.23;;;;;;;;;;6255838;22;20377;-90
2024/01/06 13:32:15;;;;;;;4.30;3.70;;;;;;;;;;6251894;22;21018;-89
2024/01/06 13:34:41;;;;;;;4.17;3.77;;;;;;;;;;6255767;22;20393;-90
2024/01/06 13:37:10;;;;;;;3.40;3.10;;;;;;;;;;6252630;22;20500;-91
2024/01/06 13:39:36;;;;;;;4.07;3.23;;;;;;;;;;6256876;22;20424;-91
2024/01/06 13:42:05;;;;;;;3.30;3.00;;;;;;;;;;6253813;22;20384;-90
2024/01/06 13:44:31;;;;;;;3.50;3.20;;;;;;;;;;6256943;22;20388;-88
2024/01/06 13:46:57;;;;;;;4.47;3.67;;;;;;;;;;6277309;22;20413;-92
2024/01/06 13:49:27;;;;;;;3.57;3.27;;;;;;;;;;6255063;22;20377;-92
2024/01/06 13:51:53;;;;;;;5.70;3.80;;;;;;;;;;6256984;22;20415;-91
2024/01/06 13:54:20;;;;;;;4.00;3.10;;;;;;;;;;6254379;22;20425;-90
2024/01/06 13:56:46;;;;;;;4.80;3.20;;;;;;;;;;6257340;22;20428;-91
2024/01/06 13:59:12;;;;;;;4.60;3.10;;;;;;;;;;6256402;22;20408;-93
2024/01/06 14:01:38;;;;;;;3.50;3.20;;;;;;;;;;6281094;22;20369;-93
2024/01/06 14:04:05;;;;;;;4.00;2.93;;;;;;;;;;6257178;22;20365;-93
2024/01/06 14:06:31;;;;;;;3.60;3.27;;;;;;;;;;6222222;23;20722;-93
2024/01/06 14:08:58;;;;;;;4.10;3.20;;;;;;;;;;6224737;23;20374;-93
2024/01/06 14:11:25;;;;;;;3.53;3.17;;;;;;;;;;6197041;23;20473;-93
2024/01/06 14:13:53;;;;;;;4.87;3.90;;;;;;;;;;6198421;22;20549;-92
2024/01/06 14:16:20;;;;;;;3.70;3.10;;;;;;;;;;6197710;23;20386;-92
2024/01/06 14:18:46;;;;;;;3.47;2.80;;;;;;;;;;6197309;23;20439;-91
2024/01/06 14:21:18;;;;;;;2.80;2.20;;;;;;;;;;6200799;23;20386;-93
2024/01/06 14:23:45;;;;;;;4.10;3.67;;;;;;;;;;6198836;23;20389;-94
2024/01/06 14:26:11;;;;;;;4.43;4.03;;;;;;;;;;6200658;23;20452;-95
2024/01/06 14:28:37;;;;;;;3.23;2.50;;;;;;;;;;6200052;23;20889;-94
2024/01/06 14:31:03;;;;;;;3.80;3.50;;;;;;;;;;6201094;23;20382;-92
2024/01/06 14:33:34;;;;;;;4.13;3.50;;;;;;;;;;6202650;23;20527;-91
2024/01/06 14:36:01;;;;;;;4.07;3.00;;;;;;;;;;6203602;23;20389;-94
2024/01/06 14:38:27;;;;;;;3.97;3.23;;;;;;;;;;6253482;22;20362;-94